createdAt,value
2022-08-26T00:01:15.214Z,101306.44
2022-08-26T00:03:20.731Z,101309.97
2022-08-26T00:05:24.813Z,101296.56
2022-08-26T00:07:28.458Z,101299.25
2022-08-26T00:09:33.120Z,101301.94
2022-08-26T00:11:42.431Z,101300.97
2022-08-26T00:13:47.836Z,101300.97
2022-08-26T00:15:53.791Z,101307.16
2022-08-26T00:17:57.611Z,101305.47
2022-08-26T00:20:02.791Z,101309.97
2022-08-26T00:22:06.807Z,101309.97
2022-08-26T00:24:10.607Z,101306.31
2022-08-26T00:26:14.219Z,101310.84
2022-08-26T00:28:19.060Z,101317.16
2022-08-26T00:30:28.681Z,101311.94
2022-08-26T00:32:32.330Z,101309.38
2022-08-26T00:34:38.223Z,101317.41
2022-08-26T00:36:43.658Z,101321.94
2022-08-26T00:38:48.170Z,101311.34
2022-08-26T00:40:53.909Z,101312.47
2022-08-26T00:42:58.347Z,101316.09
2022-08-26T00:45:01.894Z,101308.06
2022-08-26T00:47:09.295Z,101308.06
2022-08-26T00:49:17.344Z,101286.78
2022-08-26T00:51:29.838Z,101296.06
2022-08-26T00:53:41.463Z,101294.34
2022-08-26T00:55:45.111Z,101294.47
2022-08-26T00:57:50.857Z,101292.06
2022-08-26T00:59:57.820Z,101289.81
2022-08-26T01:02:03.101Z,101286.63
2022-08-26T01:04:07.385Z,101292.25
2022-08-26T01:06:13.056Z,101296.75
2022-08-26T01:08:16.740Z,101292.47
2022-08-26T01:10:26.084Z,101295.28
2022-08-26T01:12:33.244Z,101298.94
2022-08-26T01:14:38.564Z,101297.28
2022-08-26T01:16:44.202Z,101291.19
2022-08-26T01:18:49.184Z,101289.38
2022-08-26T01:21:00.005Z,101290.00
2022-08-26T01:23:07.128Z,101291.25
2022-08-26T01:25:12.987Z,101293.19
2022-08-26T01:27:20.937Z,101297.09
2022-08-26T01:29:25.788Z,101299.34
2022-08-26T01:31:32.683Z,101303.25
2022-08-26T01:33:42.376Z,101299.22
2022-08-26T01:35:48.345Z,101300.34
2022-08-26T01:37:56.036Z,101301.56
2022-08-26T01:40:00.909Z,101301.69
2022-08-26T01:42:10.413Z,101305.47
2022-08-26T01:44:20.976Z,101300.22
2022-08-26T01:46:25.736Z,101307.69
2022-08-26T01:48:35.610Z,101307.19
2022-08-26T01:50:40.001Z,101310.97
2022-08-26T01:52:46.108Z,101308.44
2022-08-26T01:54:56.974Z,101307.47
2022-08-26T01:57:04.770Z,101315.47
2022-08-26T01:59:12.563Z,101313.50
2022-08-26T02:01:17.577Z,101316.94
2022-08-26T02:03:22.694Z,101317.63
2022-08-26T02:05:26.451Z,101316.41
2022-08-26T02:07:31.438Z,101320.53
2022-08-26T02:09:41.295Z,101322.84
2022-08-26T02:11:45.232Z,101320.75
2022-08-26T02:13:53.193Z,101323.19
2022-08-26T02:15:58.598Z,101329.25
2022-08-26T02:18:04.212Z,101332.69
2022-08-26T02:20:14.795Z,101330.00
2022-08-26T02:22:22.028Z,101330.09
2022-08-26T02:24:28.375Z,101336.19
2022-08-26T02:26:31.658Z,101336.06
2022-08-26T02:28:40.152Z,101333.38
2022-08-26T02:30:47.261Z,101338.59
2022-08-26T02:32:51.914Z,101340.44
2022-08-26T02:34:55.337Z,101338.72
2022-08-26T02:37:00.766Z,101335.34
2022-08-26T02:39:04.968Z,101336.44
2022-08-26T02:41:08.728Z,101339.25
2022-08-26T02:43:13.978Z,101339.47
2022-08-26T02:45:23.289Z,101339.75
2022-08-26T02:47:29.237Z,101337.19
2022-08-26T02:49:36.001Z,101342.81
2022-08-26T02:51:39.796Z,101343.66
2022-08-26T02:53:43.239Z,101342.81
2022-08-26T02:55:49.512Z,101337.59
2022-08-26T02:57:53.312Z,101335.88
2022-08-26T02:59:56.611Z,101344.75
2022-08-26T03:02:00.516Z,101343.91
2022-08-26T03:04:07.502Z,101335.88
2022-08-26T03:06:10.803Z,101341.22
2022-08-26T03:08:14.241Z,101337.69
2022-08-26T03:10:17.631Z,101330.66
2022-08-26T03:12:21.383Z,101338.81
2022-08-26T03:14:25.027Z,101335.88
2022-08-26T03:16:32.255Z,101339.53
2022-08-26T03:18:36.144Z,101335.13
2022-08-26T03:20:40.846Z,101344.88
2022-08-26T03:22:44.825Z,101342.94
2022-08-26T03:24:48.309Z,101336.59
2022-08-26T03:26:53.039Z,101344.50
2022-08-26T03:29:15.029Z,101332.94
2022-08-26T03:31:18.636Z,101336.38
2022-08-26T03:33:22.566Z,101336.38
2022-08-26T03:35:27.061Z,101337.34
2022-08-26T03:37:32.325Z,101340.97
2022-08-26T03:39:36.135Z,101335.63
2022-08-26T03:41:40.713Z,101332.34
2022-08-26T03:43:44.795Z,101333.22
2022-08-26T03:45:48.381Z,101333.22
2022-08-26T03:47:54.883Z,101334.19
2022-08-26T03:50:01.624Z,101335.88
2022-08-26T03:52:05.946Z,101333.47
2022-08-26T03:54:11.025Z,101331.88
2022-08-26T03:56:15.081Z,101328.59
2022-08-26T03:58:18.674Z,101334.22
2022-08-26T04:00:22.540Z,101341.63
2022-08-26T04:02:26.779Z,101339.31
2022-08-26T04:04:30.530Z,101335.06
2022-08-26T04:06:38.068Z,101332.75
2022-08-26T04:08:42.105Z,101337.25
2022-08-26T04:10:47.429Z,101337.38
2022-08-26T04:12:51.663Z,101333.97
2022-08-26T04:14:55.331Z,101334.22
2022-08-26T04:17:00.689Z,101326.72
2022-08-26T04:19:04.527Z,101325.97
2022-08-26T04:21:08.913Z,101325.38
2022-08-26T04:23:13.887Z,101335.22
2022-08-26T04:25:21.545Z,101325.47
2022-08-26T04:27:26.796Z,101325.47
2022-08-26T04:29:31.003Z,101334.50
2022-08-26T04:31:36.013Z,101331.88
2022-08-26T04:33:41.892Z,101337.59
2022-08-26T04:35:45.617Z,101339.78
2022-08-26T04:37:51.818Z,101332.97
2022-08-26T04:39:55.563Z,101334.31
2022-08-26T04:41:59.739Z,101326.94
2022-08-26T04:44:07.996Z,101336.03
2022-08-26T04:46:12.952Z,101337.84
2022-08-26T04:48:17.298Z,101341.25
2022-08-26T04:50:23.670Z,101338.78
2022-08-26T04:52:28.541Z,101344.03
2022-08-26T04:54:32.190Z,101346.81
2022-08-26T04:56:40.647Z,101340.75
2022-08-26T04:58:44.120Z,101343.66
2022-08-26T05:00:50.132Z,101345.34
2022-08-26T05:02:54.010Z,101343.78
2022-08-26T05:04:58.626Z,101342.22
2022-08-26T05:07:03.459Z,101343.28
2022-08-26T05:09:07.667Z,101352.28
2022-08-26T05:11:11.935Z,101358.69
2022-08-26T05:13:18.168Z,101348.97
2022-08-26T05:15:24.121Z,101345.34
2022-08-26T05:17:29.233Z,101357.09
2022-08-26T05:19:32.876Z,101353.59
2022-08-26T05:21:38.922Z,101359.19
2022-08-26T05:23:42.417Z,101353.72
2022-08-26T05:25:48.738Z,101358.09
2022-08-26T05:27:52.280Z,101363.53
2022-08-26T05:29:58.560Z,101369.13
2022-08-26T05:32:02.157Z,101366.56
2022-08-26T05:34:08.545Z,101359.63
2022-08-26T05:36:15.303Z,101371.91
2022-08-26T05:38:21.385Z,101372.88
2022-08-26T05:40:24.984Z,101373.75
2022-08-26T05:42:29.673Z,101374.59
2022-08-26T05:44:53.900Z,101378.84
2022-08-26T05:46:57.039Z,101380.56
2022-08-26T05:49:01.730Z,101382.97
2022-08-26T05:51:09.373Z,101385.53
2022-08-26T05:53:14.904Z,101383.69
2022-08-26T05:55:21.747Z,101385.66
2022-08-26T05:57:25.370Z,101384.69
2022-08-26T05:59:28.947Z,101387.38
2022-08-26T06:01:35.808Z,101391.63
2022-08-26T06:03:42.110Z,101382.50
2022-08-26T06:05:45.633Z,101393.09
2022-08-26T06:08:08.041Z,101384.22
2022-08-26T06:10:31.629Z,101394.19
2022-08-26T06:12:36.261Z,101392.47
2022-08-26T06:14:39.820Z,101395.25
2022-08-26T06:16:45.229Z,101389.28
2022-08-26T06:18:50.939Z,101398.25
2022-08-26T06:20:58.402Z,101397.31
2022-08-26T06:23:22.845Z,101406.91
2022-08-26T06:25:42.156Z,101401.00
2022-08-26T06:27:47.092Z,101405.72
2022-08-26T06:29:51.634Z,101400.22
2022-08-26T06:31:57.359Z,101405.94
2022-08-26T06:34:01.745Z,101408.50
2022-08-26T06:36:06.013Z,101404.72
2022-08-26T06:38:11.679Z,101405.09
2022-08-26T06:40:15.204Z,101410.31
2022-08-26T06:42:19.632Z,101408.75
2022-08-26T06:44:23.407Z,101413.47
2022-08-26T06:46:27.447Z,101411.19
2022-08-26T06:48:31.218Z,101413.47
2022-08-26T06:50:35.404Z,101429.53
2022-08-26T06:52:39.102Z,101425.56
2022-08-26T06:54:45.287Z,101431.41
2022-08-26T06:56:49.694Z,101429.19
2022-08-26T06:58:54.857Z,101433.56
2022-08-26T07:01:03.121Z,101434.91
2022-08-26T07:03:13.727Z,101439.84
2022-08-26T07:05:17.733Z,101437.63
2022-08-26T07:07:21.881Z,101446.72
2022-08-26T07:09:28.765Z,101439.59
2022-08-26T07:11:34.730Z,101436.91
2022-08-26T07:13:39.257Z,101445.78
2022-08-26T07:15:43.759Z,101442.97
2022-08-26T07:17:47.379Z,101442.25
2022-08-26T07:19:51.484Z,101440.66
2022-08-26T07:21:56.152Z,101440.56
2022-08-26T07:24:01.391Z,101447.47
2022-08-26T07:26:06.611Z,101458.16
2022-08-26T07:28:12.124Z,101455.63
2022-08-26T07:30:16.042Z,101453.16
2022-08-26T07:32:22.966Z,101456.06
2022-08-26T07:34:27.542Z,101462.28
2022-08-26T07:36:31.701Z,101464.94
2022-08-26T07:38:35.943Z,101464.59
2022-08-26T07:40:40.887Z,101462.16
2022-08-26T07:42:44.633Z,101456.81
2022-08-26T07:44:51.244Z,101468.84
2022-08-26T07:46:55.172Z,101463.91
2022-08-26T07:48:59.540Z,101465.50
2022-08-26T07:51:03.592Z,101457.69
2022-08-26T07:53:07.895Z,101463.38
2022-08-26T07:55:14.324Z,101470.06
2022-08-26T07:57:19.103Z,101473.81
2022-08-26T07:59:23.493Z,101470.28
2022-08-26T08:01:29.860Z,101467.63
2022-08-26T08:03:34.533Z,101465.44
2022-08-26T08:05:41.103Z,101468.84
2022-08-26T08:07:45.824Z,101467.91
2022-08-26T08:09:51.544Z,101469.47
2022-08-26T08:11:55.083Z,101466.78
2022-08-26T08:14:00.855Z,101472.25
2022-08-26T08:16:05.179Z,101472.38
2022-08-26T08:18:15.382Z,101473.13
2022-08-26T08:20:20.238Z,101469.38
2022-08-26T08:22:24.516Z,101472.63
2022-08-26T08:24:28.027Z,101466.34
2022-08-26T08:26:31.771Z,101473.72
2022-08-26T08:28:36.473Z,101473.97
2022-08-26T08:30:41.358Z,101475.56
2022-08-26T08:32:45.200Z,101476.38
2022-08-26T08:34:50.411Z,101476.28
2022-08-26T08:36:54.420Z,101484.53
2022-08-26T08:38:58.056Z,101481.34
2022-08-26T08:41:02.015Z,101485.13
2022-08-26T08:43:12.884Z,101480.63
2022-08-26T08:45:21.451Z,101490.56
2022-08-26T08:47:32.528Z,101487.16
2022-08-26T08:49:36.357Z,101488.25
2022-08-26T08:51:48.612Z,101488.59
2022-08-26T08:53:55.927Z,101484.22
2022-08-26T08:56:11.841Z,101486.03
2022-08-26T08:58:20.778Z,101487.00
2022-08-26T09:00:30.255Z,101485.06
2022-08-26T09:02:40.474Z,101482.06
2022-08-26T09:05:08.716Z,101485.44
2022-08-26T09:07:23.765Z,101485.31
2022-08-26T09:09:41.221Z,101481.81
2022-08-26T09:11:45.291Z,101489.94
2022-08-26T09:13:55.475Z,101487.16
2022-08-26T09:16:07.607Z,101484.00
2022-08-26T09:18:26.164Z,101497.75
2022-08-26T09:20:42.455Z,101492.09
2022-08-26T09:22:51.612Z,101485.53
2022-08-26T09:24:55.337Z,101489.69
2022-08-26T09:26:59.448Z,101496.25
2022-08-26T09:29:05.731Z,101496.53
2022-08-26T09:31:14.368Z,101499.06
2022-08-26T09:33:20.199Z,101503.34
2022-08-26T09:35:27.670Z,101507.72
2022-08-26T09:37:38.483Z,101503.34
2022-08-26T09:39:44.344Z,101513.19
2022-08-26T09:42:04.540Z,101506.97
2022-08-26T09:44:15.700Z,101512.31
2022-08-26T09:46:25.673Z,101512.56
2022-08-26T09:48:34.818Z,101515.13
2022-08-26T09:50:50.674Z,101518.66
2022-08-26T09:53:12.785Z,101524.22
2022-08-26T09:55:25.257Z,101513.03
2022-08-26T09:57:31.204Z,101514.97
2022-08-26T09:59:34.925Z,101512.81
2022-08-26T10:01:42.202Z,101514.03
2022-08-26T10:03:47.375Z,101516.16
2022-08-26T10:05:59.813Z,101511.41
2022-08-26T10:08:18.906Z,101520.19
2022-08-26T10:10:26.718Z,101509.50
2022-08-26T10:12:34.081Z,101514.84
2022-08-26T10:16:53.800Z,101513.13
2022-08-26T10:19:05.733Z,101513.75
2022-08-26T10:21:14.385Z,101512.66
2022-08-26T10:23:26.403Z,101517.53
2022-08-26T10:25:37.728Z,101522.41
2022-08-26T10:27:52.732Z,101519.00
2022-08-26T10:30:05.407Z,101517.81
2022-08-26T10:32:15.725Z,101524.63
2022-08-26T10:34:21.328Z,101522.66
2022-08-26T10:37:10.540Z,101522.41
2022-08-26T10:39:15.450Z,101521.56
2022-08-26T10:41:24.455Z,101522.91
2022-08-26T10:43:31.431Z,101517.19
2022-08-26T10:45:40.392Z,101524.25
2022-08-26T10:47:50.046Z,101521.44
2022-08-26T10:49:58.800Z,101523.16
2022-08-26T10:52:15.195Z,101524.13
2022-08-26T10:54:27.412Z,101529.59
2022-08-26T10:56:44.848Z,101524.13
2022-08-26T10:59:00.111Z,101528.25
2022-08-26T11:01:27.343Z,101528.25
2022-08-26T11:03:40.272Z,101535.09
2022-08-26T11:05:44.091Z,101535.56
2022-08-26T11:07:51.699Z,101532.66
2022-08-26T11:09:56.182Z,101533.50
2022-08-26T11:12:06.421Z,101539.94
2022-08-26T11:14:38.547Z,101537.13
2022-08-26T11:16:52.911Z,101537.38
2022-08-26T11:18:57.222Z,101539.09
2022-08-26T11:21:00.954Z,101535.34
2022-08-26T11:23:50.598Z,101544.56
2022-08-26T11:26:27.453Z,101536.03
2022-08-26T11:28:44.882Z,101540.81
2022-08-26T11:30:57.553Z,101540.06
2022-08-26T11:33:02.053Z,101541.03
2022-08-26T11:35:09.419Z,101543.34
2022-08-26T11:39:54.772Z,101539.47
2022-08-26T11:42:03.315Z,101541.19
2022-08-26T11:44:09.448Z,101541.28
2022-08-26T11:46:14.942Z,101538.59
2022-08-26T11:48:20.006Z,101531.56
2022-08-26T11:50:27.161Z,101537.03
2022-08-26T11:52:30.705Z,101541.19
2022-08-26T11:54:36.077Z,101542.84
2022-08-26T11:56:42.142Z,101538.97
2022-08-26T11:58:48.320Z,101534.84
2022-08-26T12:00:58.202Z,101538.38
2022-08-26T12:03:06.313Z,101539.69
2022-08-26T12:05:10.301Z,101541.41
2022-08-26T12:07:15.926Z,101532.63
2022-08-26T12:09:25.169Z,101536.31
2022-08-26T12:11:31.166Z,101541.88
2022-08-26T12:13:36.999Z,101539.59
2022-08-26T12:15:41.524Z,101543.97
2022-08-26T12:17:52.995Z,101534.22
2022-08-26T12:19:58.180Z,101539.81
2022-08-26T12:22:05.509Z,101546.41
2022-08-26T12:24:09.489Z,101535.06
2022-08-26T12:26:22.646Z,101537.03
2022-08-26T12:28:27.490Z,101538.84
2022-08-26T12:30:31.263Z,101537.47
2022-08-26T12:32:37.520Z,101537.00
2022-08-26T12:35:10.467Z,101533.06
2022-08-26T12:37:16.737Z,101543.28
2022-08-26T12:39:28.635Z,101544.34
2022-08-26T12:41:48.391Z,101540.88
2022-08-26T12:43:51.981Z,101546.03
2022-08-26T12:45:58.615Z,101543.56
2022-08-26T12:48:07.365Z,101545.69
2022-08-26T12:50:19.697Z,101542.25
2022-08-26T12:52:31.094Z,101545.19
2022-08-26T12:54:56.541Z,101544.72
2022-08-26T12:57:11.233Z,101549.81
2022-08-26T12:59:25.248Z,101544.22
2022-08-26T13:01:29.901Z,101543.13
2022-08-26T13:03:43.998Z,101547.34
2022-08-26T13:05:49.677Z,101549.06
2022-08-26T13:08:14.642Z,101550.56
2022-08-26T13:10:37.523Z,101549.38
2022-08-26T13:12:42.566Z,101558.16
2022-08-26T13:14:46.415Z,101550.03
2022-08-26T13:16:50.586Z,101545.63
2022-08-26T13:18:57.134Z,101549.28
2022-08-26T13:21:02.582Z,101542.34
2022-08-26T13:23:06.138Z,101545.38
2022-08-26T13:25:10.270Z,101541.91
2022-08-26T13:27:15.702Z,101549.59
2022-08-26T13:29:19.952Z,101546.72
2022-08-26T13:31:26.965Z,101546.56
2022-08-26T13:33:30.799Z,101552.84
2022-08-26T13:35:34.743Z,101544.28
2022-08-26T13:37:39.715Z,101553.88
2022-08-26T13:39:45.817Z,101544.03
2022-08-26T13:41:49.629Z,101548.78
2022-08-26T13:43:53.720Z,101547.22
2022-08-26T13:45:57.635Z,101545.41
2022-08-26T13:48:01.235Z,101545.13
2022-08-26T13:50:06.218Z,101548.16
2022-08-26T13:52:09.916Z,101544.22
2022-08-26T13:54:15.112Z,101543.00
2022-08-26T13:56:18.973Z,101544.59
2022-08-26T13:58:22.676Z,101541.63
2022-08-26T14:00:29.134Z,101537.69
2022-08-26T14:02:32.783Z,101540.25
2022-08-26T14:04:36.335Z,101541.22
2022-08-26T14:06:40.021Z,101548.28
2022-08-26T14:08:45.052Z,101543.66
2022-08-26T14:10:50.629Z,101542.28
2022-08-26T14:12:55.140Z,101543.13
2022-08-26T14:14:58.871Z,101533.50
2022-08-26T14:17:02.869Z,101535.47
2022-08-26T14:19:08.933Z,101540.84
2022-08-26T14:21:14.894Z,101536.00
2022-08-26T14:23:19.353Z,101536.53
2022-08-26T14:25:25.477Z,101534.00
2022-08-26T14:27:31.216Z,101542.03
2022-08-26T14:29:35.018Z,101535.06
2022-08-26T14:31:39.035Z,101530.06
2022-08-26T14:33:43.446Z,101531.09
2022-08-26T14:35:48.809Z,101533.91
2022-08-26T14:37:54.168Z,101539.13
2022-08-26T14:39:58.225Z,101539.38
2022-08-26T14:42:02.001Z,101538.66
2022-08-26T14:44:09.873Z,101532.44
2022-08-26T14:46:15.866Z,101536.13
2022-08-26T14:48:20.110Z,101537.91
2022-08-26T14:50:26.612Z,101535.25
2022-08-26T14:52:50.830Z,101532.56
2022-08-26T14:54:55.269Z,101528.19
2022-08-26T14:57:02.104Z,101527.19
2022-08-26T14:59:07.481Z,101530.63
2022-08-26T15:01:13.372Z,101530.47
2022-08-26T15:05:26.159Z,101537.91
2022-08-26T15:07:30.414Z,101530.16
2022-08-26T15:09:37.915Z,101525.63
2022-08-26T15:11:41.926Z,101531.59
2022-08-26T15:13:46.185Z,101528.53
2022-08-26T15:15:51.719Z,101523.03
2022-08-26T15:17:55.737Z,101523.47
2022-08-26T15:20:00.068Z,101525.22
2022-08-26T15:22:04.008Z,101525.94
2022-08-26T15:24:08.118Z,101526.66
2022-08-26T15:26:13.650Z,101516.38
2022-08-26T15:28:17.685Z,101520.34
2022-08-26T15:30:22.198Z,101517.16
2022-08-26T15:32:28.050Z,101515.78
2022-08-26T15:34:32.184Z,101514.78
2022-08-26T15:36:38.012Z,101521.59
2022-08-26T15:38:42.963Z,101522.75
2022-08-26T15:40:46.848Z,101520.53
2022-08-26T15:42:54.353Z,101504.13
2022-08-26T15:45:05.456Z,101517.56
2022-08-26T15:47:09.505Z,101505.13
2022-08-26T15:49:18.267Z,101512.88
2022-08-26T15:51:26.022Z,101507.97
2022-08-26T15:53:31.703Z,101505.88
2022-08-26T15:55:35.632Z,101513.94
2022-08-26T15:57:39.504Z,101500.66
2022-08-26T15:59:46.034Z,101503.34
2022-08-26T16:01:49.844Z,101509.41
2022-08-26T16:03:54.437Z,101498.38
2022-08-26T16:05:59.851Z,101510.53
2022-08-26T16:08:04.776Z,101504.94
2022-08-26T16:10:09.893Z,101502.66
2022-08-26T16:14:18.137Z,101500.09
2022-08-26T16:16:22.678Z,101494.72
2022-08-26T16:18:26.965Z,101501.91
2022-08-26T16:20:32.559Z,101506.53
2022-08-26T16:22:38.033Z,101493.53
2022-08-26T16:24:41.889Z,101499.03
2022-08-26T16:26:46.236Z,101504.66
2022-08-26T16:28:50.053Z,101503.69
2022-08-26T16:30:53.915Z,101491.97
2022-08-26T16:32:58.882Z,101494.38
2022-08-26T16:35:02.336Z,101496.22
2022-08-26T16:37:05.897Z,101485.34
2022-08-26T16:39:11.896Z,101489.59
2022-08-26T16:41:15.482Z,101487.47
2022-08-26T16:43:18.857Z,101488.19
2022-08-26T16:45:23.133Z,101490.28
2022-08-26T16:47:27.314Z,101481.53
2022-08-26T16:49:30.953Z,101489.59
2022-08-26T16:51:37.776Z,101487.06
2022-08-26T16:53:42.128Z,101486.31
2022-08-26T16:55:48.893Z,101485.34
2022-08-26T16:57:53.712Z,101490.84
2022-08-26T16:59:57.294Z,101494.94
2022-08-26T17:02:01.727Z,101488.13
2022-08-26T17:04:05.922Z,101493.50
2022-08-26T17:06:10.242Z,101494.34
2022-08-26T17:08:24.350Z,101492.63
2022-08-26T17:10:33.070Z,101500.81
2022-08-26T17:12:39.307Z,101511.84
2022-08-26T17:14:43.355Z,101504.16
2022-08-26T17:16:51.703Z,101500.19
2022-08-26T17:18:56.431Z,101504.13
2022-08-26T17:21:03.551Z,101501.84
2022-08-26T17:23:07.713Z,101496.03
2022-08-26T17:25:13.037Z,101496.03
2022-08-26T17:27:16.949Z,101497.13
2022-08-26T17:29:22.239Z,101495.44
2022-08-26T17:31:26.165Z,101499.25
2022-08-26T17:33:30.751Z,101506.44
2022-08-26T17:35:34.961Z,101507.38
2022-08-26T17:37:38.963Z,101507.63
2022-08-26T17:39:44.254Z,101503.25
2022-08-26T17:41:48.215Z,101504.25
2022-08-26T17:43:51.694Z,101493.66
2022-08-26T17:46:07.146Z,101501.72
2022-08-26T17:48:12.236Z,101501.94
2022-08-26T17:50:17.698Z,101511.84
2022-08-26T17:52:21.724Z,101515.75
2022-08-26T17:54:26.083Z,101516.03
2022-08-26T17:56:31.461Z,101512.75
2022-08-26T17:58:35.002Z,101514.13
2022-08-26T18:00:39.277Z,101517.06
2022-08-26T18:02:44.836Z,101513.94
2022-08-26T18:04:48.456Z,101512.34
2022-08-26T18:06:52.302Z,101514.19
2022-08-26T18:08:56.692Z,101514.19
2022-08-26T18:11:00.604Z,101515.16
2022-08-26T18:13:05.016Z,101515.16
2022-08-26T18:15:09.529Z,101517.84
2022-08-26T18:17:13.865Z,101524.03
2022-08-26T18:19:22.731Z,101527.59
2022-08-26T18:21:28.089Z,101528.56
2022-08-26T18:23:32.367Z,101527.13
2022-08-26T18:25:36.130Z,101529.94
2022-08-26T18:27:40.015Z,101531.03
2022-08-26T18:29:45.469Z,101540.75
2022-08-26T18:31:49.943Z,101540.75
2022-08-26T18:33:54.144Z,101535.41
2022-08-26T18:35:59.010Z,101531.75
2022-08-26T18:38:11.322Z,101535.41
2022-08-26T18:40:16.428Z,101541.91
2022-08-26T18:42:20.501Z,101535.09
2022-08-26T18:44:25.619Z,101538.88
2022-08-26T18:46:29.804Z,101536.31
2022-08-26T18:48:33.492Z,101533.63
2022-08-26T18:50:40.510Z,101537.41
2022-08-26T18:52:45.550Z,101537.66
2022-08-26T18:54:49.650Z,101541.34
2022-08-26T18:56:53.184Z,101541.34
2022-08-26T18:58:56.811Z,101539.75
2022-08-26T19:01:00.471Z,101546.91
2022-08-26T19:03:04.398Z,101543.53
2022-08-26T19:05:12.061Z,101548.41
2022-08-26T19:07:15.781Z,101553.06
2022-08-26T19:09:21.810Z,101555.97
2022-08-26T19:11:31.746Z,101558.91
2022-08-26T19:13:37.726Z,101555.50
2022-08-26T19:15:42.515Z,101556.63
2022-08-26T19:17:46.144Z,101560.53
2022-08-26T19:19:49.981Z,101563.31
2022-08-26T19:21:53.700Z,101562.09
2022-08-26T19:23:58.669Z,101562.44
2022-08-26T19:26:05.747Z,101564.63
2022-08-26T19:28:09.651Z,101565.97
2022-08-26T19:30:13.553Z,101569.75
2022-08-26T19:32:17.863Z,101568.03
2022-08-26T19:34:21.497Z,101570.13
2022-08-26T19:36:26.675Z,101579.84
2022-08-26T19:38:31.237Z,101578.63
2022-08-26T19:40:36.656Z,101582.53
2022-08-26T19:42:41.710Z,101581.19
2022-08-26T19:45:03.066Z,101592.88
2022-08-26T19:47:08.367Z,101592.03
2022-08-26T19:49:12.011Z,101600.06
2022-08-26T19:51:17.086Z,101594.69
2022-08-26T19:53:21.002Z,101596.41
2022-08-26T19:55:26.347Z,101599.94
2022-08-26T19:57:30.293Z,101596.41
2022-08-26T19:59:36.379Z,101602.72
2022-08-26T20:01:40.134Z,101607.25
2022-08-26T20:03:44.936Z,101607.34
2022-08-26T20:05:49.027Z,101601.97
2022-08-26T20:07:53.244Z,101600.31
2022-08-26T20:09:57.538Z,101602.22
2022-08-26T20:12:02.660Z,101608.53
2022-08-26T20:14:06.731Z,101603.44
2022-08-26T20:16:12.481Z,101608.06
2022-08-26T20:18:30.078Z,101601.25
2022-08-26T20:20:51.339Z,101609.50
2022-08-26T20:22:55.505Z,101604.63
2022-08-26T20:24:59.155Z,101606.81
2022-08-26T20:27:07.456Z,101607.19
2022-08-26T20:29:13.376Z,101604.84
2022-08-26T20:31:19.841Z,101605.06
2022-08-26T20:33:23.874Z,101607.13
2022-08-26T20:35:28.486Z,101611.88
2022-08-26T20:37:32.283Z,101606.75
2022-08-26T20:39:36.324Z,101609.78
2022-08-26T20:41:41.051Z,101600.41
2022-08-26T20:43:45.114Z,101618.59
2022-08-26T20:45:48.859Z,101611.75
2022-08-26T20:47:54.566Z,101615.72
2022-08-26T20:49:58.405Z,101614.38
2022-08-26T20:52:02.952Z,101615.91
2022-08-26T20:54:07.267Z,101621.72
2022-08-26T20:56:12.113Z,101615.97
2022-08-26T20:58:16.088Z,101619.94
2022-08-26T21:00:26.376Z,101623.91
2022-08-26T21:02:30.734Z,101623.50
2022-08-26T21:04:37.110Z,101623.09
2022-08-26T21:06:45.136Z,101627.06
2022-08-26T21:08:53.828Z,101628.38
2022-08-26T21:10:58.715Z,101627.84
2022-08-26T21:13:03.576Z,101638.63
2022-08-26T21:15:08.938Z,101635.31
2022-08-26T21:17:12.984Z,101632.88
2022-08-26T21:19:18.948Z,101642.19
2022-08-26T21:21:25.334Z,101631.91
2022-08-26T21:23:29.415Z,101634.06
2022-08-26T21:25:33.453Z,101631.84
2022-08-26T21:27:37.590Z,101633.84
2022-08-26T21:29:41.476Z,101637.69
2022-08-26T21:31:46.787Z,101638.00
2022-08-26T21:33:51.210Z,101640.97
2022-08-26T21:35:55.875Z,101635.97
2022-08-26T21:38:01.598Z,101630.84
2022-08-26T21:40:06.300Z,101632.03
2022-08-26T21:42:10.115Z,101637.53
2022-08-26T21:44:15.317Z,101632.53
2022-08-26T21:46:23.592Z,101634.47
2022-08-26T21:48:27.900Z,101636.38
2022-08-26T21:50:38.720Z,101640.22
2022-08-26T21:52:42.846Z,101634.22
2022-08-26T21:54:49.574Z,101638.94
2022-08-26T21:56:54.063Z,101639.97
2022-08-26T21:58:58.644Z,101638.38
2022-08-26T22:01:02.824Z,101640.50
2022-08-26T22:03:06.740Z,101638.03
2022-08-26T22:05:11.014Z,101648.69
2022-08-26T22:07:15.219Z,101632.91
2022-08-26T22:09:21.012Z,101643.59
2022-08-26T22:11:27.563Z,101647.19
2022-08-26T22:13:33.279Z,101647.19
2022-08-26T22:15:40.552Z,101655.19
2022-08-26T22:17:44.179Z,101656.25
2022-08-26T22:19:48.056Z,101659.75
2022-08-26T22:21:53.594Z,101657.09
2022-08-26T22:23:59.038Z,101662.44
2022-08-26T22:26:03.595Z,101656.38
2022-08-26T22:28:09.709Z,101658.38
2022-08-26T22:30:14.075Z,101644.41
2022-08-26T22:32:18.880Z,101660.59
2022-08-26T22:34:23.682Z,101660.59
2022-08-26T22:36:30.496Z,101655.56
2022-08-26T22:38:35.104Z,101656.63
2022-08-26T22:40:40.075Z,101655.00
2022-08-26T22:42:43.719Z,101659.59
2022-08-26T22:45:03.393Z,101664.25
2022-08-26T22:47:09.440Z,101652.00
2022-08-26T22:49:16.537Z,101653.25
2022-08-26T22:51:20.556Z,101649.84
2022-08-26T22:53:24.535Z,101653.47
2022-08-26T22:55:28.206Z,101657.28
2022-08-26T22:57:31.819Z,101653.09
2022-08-26T22:59:35.291Z,101655.94
2022-08-26T23:01:42.765Z,101658.81
2022-08-26T23:03:46.473Z,101659.03
2022-08-26T23:05:50.921Z,101659.41
2022-08-26T23:07:57.643Z,101663.19
2022-08-26T23:10:01.523Z,101662.53
2022-08-26T23:12:06.080Z,101666.25
2022-08-26T23:14:09.647Z,101657.69
2022-08-26T23:16:14.623Z,101659.63
2022-08-26T23:18:19.676Z,101664.94
2022-08-26T23:20:24.811Z,101657.13
2022-08-26T23:22:28.617Z,101664.38
2022-08-26T23:24:32.416Z,101664.47
2022-08-26T23:26:37.089Z,101660.19
2022-08-26T23:28:40.969Z,101659.50
2022-08-26T23:30:44.845Z,101657.06
2022-08-26T23:32:48.464Z,101654.59
2022-08-26T23:34:59.839Z,101659.91
2022-08-26T23:37:06.157Z,101664.25
2022-08-26T23:39:10.779Z,101662.47
2022-08-26T23:41:14.097Z,101667.69
2022-08-26T23:43:20.760Z,101664.34
2022-08-26T23:45:25.290Z,101663.72
2022-08-26T23:47:29.039Z,101657.72
2022-08-26T23:49:33.479Z,101660.69
2022-08-26T23:51:56.836Z,101659.06
2022-08-26T23:54:00.382Z,101658.28
2022-08-26T23:56:04.492Z,101655.72
2022-08-26T23:58:08.054Z,101655.91
